createdAt,value
2023-05-02T00:00:51.342Z,30.94
2023-05-02T00:01:51.366Z,27.66
2023-05-02T00:02:51.779Z,26.96
2023-05-02T00:03:51.566Z,28.49
2023-05-02T00:04:51.514Z,30.00
2023-05-02T00:05:51.613Z,27.81
2023-05-02T00:06:51.820Z,29.30
2023-05-02T00:07:51.736Z,32.14
2023-05-02T00:08:51.782Z,32.61
2023-05-02T00:09:51.815Z,29.49
2023-05-02T00:10:51.904Z,29.18
2023-05-02T00:11:51.932Z,30.07
2023-05-02T00:12:51.998Z,34.60
2023-05-02T00:13:52.069Z,30.55
2023-05-02T00:14:52.108Z,30.32
2023-05-02T00:15:52.185Z,27.89
2023-05-02T00:16:52.254Z,30.41
2023-05-02T00:17:52.287Z,29.24
2023-05-02T00:18:52.312Z,28.84
2023-05-02T00:19:52.396Z,31.68
2023-05-02T00:20:52.441Z,31.02
2023-05-02T00:21:52.494Z,29.85
2023-05-02T00:22:52.573Z,26.95
2023-05-02T00:23:52.601Z,30.81
2023-05-02T00:24:52.697Z,31.51
2023-05-02T00:25:52.739Z,27.12
2023-05-02T00:26:52.783Z,30.67
2023-05-02T00:27:52.862Z,30.33
2023-05-02T00:28:52.901Z,30.50
2023-05-02T00:29:52.967Z,31.94
2023-05-02T00:30:53.081Z,30.22
2023-05-02T00:31:53.071Z,29.47
2023-05-02T00:32:53.153Z,32.38
2023-05-02T00:33:53.225Z,29.27
2023-05-02T00:34:53.277Z,31.94
2023-05-02T00:35:53.349Z,31.20
2023-05-02T00:36:53.397Z,27.68
2023-05-02T00:37:53.455Z,30.27
2023-05-02T00:38:53.529Z,26.48
2023-05-02T00:39:53.558Z,30.87
2023-05-02T00:40:53.650Z,32.73
2023-05-02T00:41:53.709Z,30.04
2023-05-02T00:42:53.785Z,31.21
2023-05-02T00:43:53.845Z,33.35
2023-05-02T00:44:53.905Z,31.64
2023-05-02T00:45:53.990Z,32.89
2023-05-02T00:46:54.073Z,29.82
2023-05-02T00:47:54.163Z,31.60
2023-05-02T00:48:54.141Z,31.41
2023-05-02T00:49:54.191Z,28.35
2023-05-02T00:50:54.244Z,29.50
2023-05-02T00:51:54.360Z,32.31
2023-05-02T00:52:54.378Z,30.89
2023-05-02T00:53:54.433Z,29.13
2023-05-02T00:54:54.468Z,32.52
2023-05-02T00:55:54.523Z,33.61
2023-05-02T00:56:54.589Z,31.10
2023-05-02T00:57:54.674Z,30.22
2023-05-02T00:58:54.710Z,33.76
2023-05-02T00:59:54.795Z,29.16
2023-05-02T01:00:54.847Z,27.79
2023-05-02T01:01:54.909Z,28.99
2023-05-02T01:02:54.936Z,32.77
2023-05-02T01:03:55.071Z,31.33
2023-05-02T01:04:55.033Z,31.70
2023-05-02T01:05:55.115Z,31.81
2023-05-02T01:06:55.152Z,32.74
2023-05-02T01:07:55.200Z,33.62
2023-05-02T01:08:55.255Z,30.73
2023-05-02T01:09:55.263Z,28.94
2023-05-02T01:10:55.314Z,28.96
2023-05-02T01:11:55.422Z,27.89
2023-05-02T01:12:55.441Z,32.09
2023-05-02T01:13:55.506Z,26.47
2023-05-02T01:14:55.554Z,29.79
2023-05-02T01:15:55.642Z,33.88
2023-05-02T01:16:55.678Z,32.55
2023-05-02T01:17:55.745Z,28.60
2023-05-02T01:18:55.777Z,28.92
2023-05-02T01:19:55.888Z,30.83
2023-05-02T01:20:55.929Z,27.36
2023-05-02T01:21:55.966Z,26.37
2023-05-02T01:22:56.054Z,25.56
2023-05-02T01:23:56.125Z,29.69
2023-05-02T01:24:56.169Z,31.50
2023-05-02T01:25:56.200Z,28.25
2023-05-02T01:26:56.286Z,27.59
2023-05-02T01:27:56.306Z,27.57
2023-05-02T01:28:56.432Z,30.65
2023-05-02T01:29:56.441Z,29.92
2023-05-02T01:30:56.470Z,31.55
2023-05-02T01:31:56.683Z,29.16
2023-05-02T01:32:56.640Z,29.56
2023-05-02T01:33:56.693Z,29.96
2023-05-02T01:34:56.718Z,27.26
2023-05-02T01:35:56.782Z,26.06
2023-05-02T01:36:56.842Z,26.79
2023-05-02T01:37:57.137Z,29.28
2023-05-02T01:38:57.060Z,31.83
2023-05-02T01:39:57.327Z,28.60
2023-05-02T01:40:57.086Z,31.81
2023-05-02T01:41:57.130Z,32.85
2023-05-02T01:42:57.234Z,31.30
2023-05-02T01:43:57.315Z,30.49
2023-05-02T01:44:57.341Z,32.54
2023-05-02T01:45:57.386Z,30.28
2023-05-02T01:46:57.501Z,33.31
2023-05-02T01:47:57.558Z,29.91
2023-05-02T01:48:57.622Z,32.60
2023-05-02T01:49:57.898Z,33.12
2023-05-02T01:50:57.716Z,34.03
2023-05-02T01:51:57.792Z,30.06
2023-05-02T01:52:58.963Z,32.42
2023-05-02T01:53:57.929Z,32.49
2023-05-02T01:54:57.953Z,31.33
2023-05-02T01:55:58.027Z,32.48
2023-05-02T01:56:58.104Z,30.16
2023-05-02T01:57:58.171Z,31.26
2023-05-02T01:58:58.234Z,30.69
2023-05-02T01:59:58.576Z,29.89
2023-05-02T02:00:58.353Z,28.55
2023-05-02T02:01:58.398Z,30.94
2023-05-02T02:02:58.514Z,31.81
2023-05-02T02:03:58.601Z,29.20
2023-05-02T02:04:58.599Z,30.67
2023-05-02T02:05:58.693Z,31.10
2023-05-02T02:06:58.693Z,33.36
2023-05-02T02:07:58.816Z,27.63
2023-05-02T02:08:58.905Z,29.40
2023-05-02T02:09:59.120Z,27.35
2023-05-02T02:10:58.931Z,31.80
2023-05-02T02:11:59.004Z,30.79
2023-05-02T02:12:59.065Z,31.82
2023-05-02T02:13:59.163Z,30.76
2023-05-02T02:14:59.210Z,29.74
2023-05-02T02:15:59.265Z,33.61
2023-05-02T02:16:59.402Z,27.98
2023-05-02T02:17:59.402Z,28.99
2023-05-02T02:18:59.449Z,28.84
2023-05-02T02:19:59.813Z,32.14
2023-05-02T02:20:59.587Z,30.45
2023-05-02T02:21:59.665Z,31.92
2023-05-02T02:22:59.716Z,31.70
2023-05-02T02:23:59.777Z,28.43
2023-05-02T02:24:59.802Z,28.92
2023-05-02T02:25:59.869Z,28.65
2023-05-02T02:26:59.941Z,29.38
2023-05-02T02:27:59.991Z,31.41
2023-05-02T02:29:00.042Z,32.80
2023-05-02T02:30:00.397Z,26.88
2023-05-02T02:31:00.213Z,34.05
2023-05-02T02:32:00.205Z,29.90
2023-05-02T02:33:00.365Z,30.30
2023-05-02T02:34:00.333Z,31.34
2023-05-02T02:35:00.389Z,33.29
2023-05-02T02:36:00.476Z,34.58
2023-05-02T02:37:00.521Z,32.15
2023-05-02T02:38:00.609Z,30.24
2023-05-02T02:39:00.621Z,32.08
2023-05-02T02:40:01.161Z,30.85
2023-05-02T02:41:00.726Z,33.15
2023-05-02T02:42:00.781Z,31.46
2023-05-02T02:43:00.873Z,34.43
2023-05-02T02:44:00.905Z,29.95
2023-05-02T02:45:00.992Z,34.01
2023-05-02T02:46:01.104Z,33.14
2023-05-02T02:47:01.141Z,32.47
2023-05-02T02:48:01.239Z,33.30
2023-05-02T02:49:01.262Z,27.58
2023-05-02T02:50:01.518Z,33.10
2023-05-02T02:51:01.363Z,31.04
2023-05-02T02:52:01.445Z,31.61
2023-05-02T02:53:01.484Z,29.81
2023-05-02T02:54:01.550Z,32.85
2023-05-02T02:55:01.556Z,32.13
2023-05-02T02:56:01.650Z,32.75
2023-05-02T02:57:01.691Z,32.11
2023-05-02T02:58:01.744Z,31.57
2023-05-02T02:59:01.787Z,32.61
2023-05-02T03:00:02.243Z,32.13
2023-05-02T03:01:01.917Z,32.49
2023-05-02T03:02:02.094Z,30.40
2023-05-02T03:03:02.190Z,31.22
2023-05-02T03:04:02.192Z,32.72
2023-05-02T03:05:02.148Z,32.56
2023-05-02T03:06:02.279Z,27.06
2023-05-02T03:07:02.275Z,31.33
2023-05-02T03:08:02.364Z,33.97
2023-05-02T03:09:02.401Z,30.01
2023-05-02T03:10:02.673Z,33.30
2023-05-02T03:11:02.515Z,31.95
2023-05-02T03:12:02.589Z,31.52
2023-05-02T03:13:02.644Z,33.98
2023-05-02T03:14:02.720Z,33.91
2023-05-02T03:15:02.786Z,33.31
2023-05-02T03:16:02.878Z,32.40
2023-05-02T03:17:02.898Z,31.36
2023-05-02T03:18:03.035Z,31.05
2023-05-02T03:19:03.011Z,28.90
2023-05-02T03:20:03.090Z,28.58
2023-05-02T03:21:03.148Z,31.26
2023-05-02T03:22:03.199Z,31.40
2023-05-02T03:23:03.263Z,29.47
2023-05-02T03:24:03.359Z,32.34
2023-05-02T03:25:03.400Z,29.73
2023-05-02T03:26:03.441Z,28.94
2023-05-02T03:27:03.499Z,32.55
2023-05-02T03:28:03.592Z,31.66
2023-05-02T03:29:03.672Z,33.17
2023-05-02T03:30:03.722Z,27.65
2023-05-02T03:31:03.839Z,31.07
2023-05-02T03:32:03.991Z,31.60
2023-05-02T03:33:03.922Z,30.40
2023-05-02T03:34:03.906Z,33.84
2023-05-02T03:35:03.975Z,34.46
2023-05-02T03:36:04.045Z,33.21
2023-05-02T03:37:04.111Z,30.39
2023-05-02T03:38:04.175Z,31.13
2023-05-02T03:39:04.190Z,29.87
2023-05-02T03:40:04.209Z,29.84
2023-05-02T03:41:04.279Z,29.77
2023-05-02T03:42:04.311Z,31.09
2023-05-02T03:43:04.347Z,33.78
2023-05-02T03:44:04.416Z,32.50
2023-05-02T03:45:04.424Z,28.38
2023-05-02T03:46:04.494Z,31.58
2023-05-02T03:47:04.590Z,30.44
2023-05-02T03:48:04.614Z,34.26
2023-05-02T03:49:04.681Z,31.75
2023-05-02T03:50:04.736Z,31.65
2023-05-02T03:51:04.805Z,32.60
2023-05-02T03:52:04.835Z,34.48
2023-05-02T03:53:04.907Z,30.24
2023-05-02T03:54:04.935Z,28.65
2023-05-02T03:55:05.008Z,34.13
2023-05-02T03:56:05.006Z,32.19
2023-05-02T03:57:05.091Z,29.30
2023-05-02T03:58:05.130Z,31.52
2023-05-02T03:59:05.123Z,30.50
2023-05-02T04:00:05.176Z,34.04
2023-05-02T04:01:05.216Z,29.42
2023-05-02T04:02:05.283Z,30.32
2023-05-02T04:03:05.401Z,32.03
2023-05-02T04:04:05.347Z,30.25
2023-05-02T04:05:05.332Z,25.60
2023-05-02T04:06:05.414Z,32.04
2023-05-02T04:07:05.419Z,30.95
2023-05-02T04:08:05.454Z,32.13
2023-05-02T04:09:05.447Z,34.25
2023-05-02T04:10:05.509Z,30.90
2023-05-02T04:11:05.529Z,31.62
2023-05-02T04:12:05.577Z,32.10
2023-05-02T04:13:05.618Z,31.09
2023-05-02T04:14:05.603Z,32.17
2023-05-02T04:15:05.651Z,29.32
2023-05-02T04:16:05.713Z,28.90
2023-05-02T04:17:05.763Z,31.55
2023-05-02T04:18:05.760Z,29.70
2023-05-02T04:19:05.749Z,29.59
2023-05-02T04:20:06.055Z,30.77
2023-05-02T04:21:05.869Z,28.84
2023-05-02T04:22:05.803Z,28.68
2023-05-02T04:23:05.822Z,35.67
2023-05-02T04:24:05.877Z,33.54
2023-05-02T04:25:05.879Z,29.97
2023-05-02T04:26:05.898Z,32.63
2023-05-02T04:27:05.956Z,33.33
2023-05-02T04:28:05.995Z,30.40
2023-05-02T04:29:06.030Z,31.60
2023-05-02T04:30:06.092Z,28.85
2023-05-02T04:31:06.208Z,30.33
2023-05-02T04:32:06.225Z,30.88
2023-05-02T04:33:06.346Z,28.86
2023-05-02T04:34:06.331Z,32.09
2023-05-02T04:35:06.335Z,30.68
2023-05-02T04:36:06.365Z,35.70
2023-05-02T04:37:07.278Z,31.85
2023-05-02T04:38:06.444Z,34.15
2023-05-02T04:39:06.490Z,31.59
2023-05-02T04:40:06.563Z,33.45
2023-05-02T04:41:09.408Z,28.23
2023-05-02T04:42:06.603Z,33.03
2023-05-02T04:43:06.549Z,28.65
2023-05-02T04:44:06.571Z,30.04
2023-05-02T04:45:06.552Z,31.58
2023-05-02T04:46:06.564Z,30.89
2023-05-02T04:47:06.533Z,33.22
2023-05-02T04:48:06.638Z,34.20
2023-05-02T04:49:06.539Z,32.31
2023-05-02T04:50:06.523Z,33.22
2023-05-02T04:51:06.520Z,29.17
2023-05-02T04:52:06.537Z,29.75
2023-05-02T04:53:06.509Z,28.11
2023-05-02T04:54:06.474Z,31.29
2023-05-02T04:55:06.484Z,29.50
2023-05-02T04:56:06.472Z,29.86
2023-05-02T04:57:06.522Z,29.54
2023-05-02T04:58:06.460Z,31.35
2023-05-02T04:59:06.439Z,27.15
2023-05-02T05:00:06.438Z,28.59
2023-05-02T05:01:06.448Z,30.42
2023-05-02T05:02:06.534Z,29.94
2023-05-02T05:03:06.579Z,27.81
2023-05-02T05:04:06.611Z,30.05
2023-05-02T05:05:06.521Z,28.45
2023-05-02T05:06:06.448Z,30.72
2023-05-02T05:07:06.416Z,28.69
2023-05-02T05:08:06.410Z,28.83
2023-05-02T05:09:06.410Z,27.60
2023-05-02T05:10:06.417Z,27.69
2023-05-02T05:11:06.394Z,32.48
2023-05-02T05:12:06.384Z,28.88
2023-05-02T05:13:06.406Z,31.98
2023-05-02T05:14:06.336Z,31.55
2023-05-02T05:15:06.346Z,30.28
2023-05-02T05:16:06.404Z,30.40
2023-05-02T05:17:06.331Z,34.19
2023-05-02T05:18:06.382Z,32.51
2023-05-02T05:19:06.348Z,34.54
2023-05-02T05:20:07.663Z,28.86
2023-05-02T05:21:06.614Z,36.23
2023-05-02T05:22:06.612Z,34.48
2023-05-02T05:23:06.565Z,35.92
2023-05-02T05:24:06.612Z,35.34
2023-05-02T05:25:06.643Z,36.30
2023-05-02T05:26:06.673Z,33.07
2023-05-02T05:27:06.701Z,33.07
2023-05-02T05:28:06.745Z,35.53
2023-05-02T05:29:06.793Z,33.12
2023-05-02T05:30:06.865Z,30.83
2023-05-02T05:31:06.919Z,29.21
2023-05-02T05:32:07.021Z,31.53
2023-05-02T05:33:07.000Z,27.96
2023-05-02T05:34:07.012Z,30.01
2023-05-02T05:35:07.328Z,26.68
2023-05-02T05:36:07.061Z,28.71
2023-05-02T05:37:07.080Z,26.59
2023-05-02T05:38:07.123Z,29.47
2023-05-02T05:39:07.151Z,29.03
2023-05-02T05:40:07.202Z,30.84
2023-05-02T05:41:07.250Z,29.26
2023-05-02T05:42:07.297Z,28.72
2023-05-02T05:43:07.357Z,27.65
2023-05-02T05:44:07.416Z,25.23
2023-05-02T05:45:07.454Z,28.43
2023-05-02T05:46:07.471Z,28.22
2023-05-02T05:47:07.567Z,27.22
2023-05-02T05:48:07.662Z,30.57
2023-05-02T05:49:07.607Z,28.72
2023-05-02T05:50:07.827Z,29.13
2023-05-02T05:51:07.692Z,28.65
2023-05-02T05:52:07.714Z,29.25
2023-05-02T05:53:07.755Z,28.99
2023-05-02T05:54:07.782Z,29.41
2023-05-02T05:55:07.832Z,27.39
2023-05-02T05:56:07.904Z,31.07
2023-05-02T05:57:07.917Z,30.19
2023-05-02T05:58:07.974Z,29.53
2023-05-02T05:59:08.012Z,31.58
2023-05-02T06:00:08.065Z,33.40
2023-05-02T06:01:08.106Z,32.85
2023-05-02T06:02:08.180Z,29.69
2023-05-02T06:03:09.896Z,30.49
2023-05-02T06:04:08.298Z,31.09
2023-05-02T06:05:08.431Z,31.67
2023-05-02T06:06:08.340Z,25.43
2023-05-02T06:07:09.704Z,30.29
2023-05-02T06:08:08.434Z,28.42
2023-05-02T06:09:08.521Z,33.52
2023-05-02T06:10:08.570Z,33.38
2023-05-02T06:11:08.619Z,27.07
2023-05-02T06:12:08.674Z,31.19
2023-05-02T06:13:08.762Z,30.57
2023-05-02T06:14:08.805Z,34.46
2023-05-02T06:15:09.300Z,32.46
2023-05-02T06:16:08.952Z,36.71
2023-05-02T06:17:08.913Z,31.49
2023-05-02T06:18:08.964Z,35.65
2023-05-02T06:19:08.965Z,36.80
2023-05-02T06:20:08.956Z,32.82
2023-05-02T06:21:08.982Z,37.53
2023-05-02T06:22:09.025Z,33.86
2023-05-02T06:23:09.045Z,37.50
2023-05-02T06:24:09.048Z,35.06
2023-05-02T06:25:09.087Z,34.92
2023-05-02T06:26:09.111Z,38.01
2023-05-02T06:27:09.107Z,36.38
2023-05-02T06:28:09.177Z,38.92
2023-05-02T06:29:09.217Z,38.04
2023-05-02T06:30:09.246Z,34.66
2023-05-02T06:31:09.352Z,37.75
2023-05-02T06:32:09.462Z,38.98
2023-05-02T06:33:09.357Z,36.41
2023-05-02T06:34:09.367Z,39.58
2023-05-02T06:35:09.393Z,36.82
2023-05-02T06:36:09.456Z,39.43
2023-05-02T06:37:09.476Z,38.59
2023-05-02T06:38:09.526Z,40.30
2023-05-02T06:39:09.584Z,38.34
2023-05-02T06:40:09.583Z,36.19
2023-05-02T06:41:09.651Z,38.42
2023-05-02T06:42:09.687Z,38.16
2023-05-02T06:43:09.737Z,42.83
2023-05-02T06:44:09.734Z,43.87
2023-05-02T06:45:09.774Z,41.20
2023-05-02T06:46:09.806Z,44.03
2023-05-02T06:47:09.902Z,41.18
2023-05-02T06:48:09.992Z,39.02
2023-05-02T06:49:09.953Z,39.92
2023-05-02T06:50:10.325Z,39.47
2023-05-02T06:51:10.036Z,42.94
2023-05-02T06:52:10.109Z,41.08
2023-05-02T06:53:10.163Z,42.09
2023-05-02T06:54:10.248Z,42.80
2023-05-02T06:55:10.321Z,43.95
2023-05-02T06:56:10.336Z,41.62
2023-05-02T06:57:10.466Z,40.88
2023-05-02T06:58:10.464Z,44.48
2023-05-02T06:59:10.526Z,45.52
2023-05-02T07:00:10.613Z,45.71
2023-05-02T07:01:10.696Z,44.46
2023-05-02T07:02:10.660Z,44.94
2023-05-02T07:03:10.736Z,42.60
2023-05-02T07:04:10.803Z,43.78
2023-05-02T07:05:10.803Z,45.96
2023-05-02T07:06:10.883Z,44.02
2023-05-02T07:07:10.888Z,44.31
2023-05-02T07:08:10.934Z,47.04
2023-05-02T07:09:10.988Z,46.98
2023-05-02T07:10:11.074Z,47.26
2023-05-02T07:11:11.135Z,44.92
2023-05-02T07:12:11.199Z,44.78
2023-05-02T07:13:11.243Z,48.07
2023-05-02T07:14:11.321Z,44.25
2023-05-02T07:15:11.346Z,45.87
2023-05-02T07:16:11.468Z,43.98
2023-05-02T07:17:11.524Z,46.51
2023-05-02T07:18:11.666Z,44.94
2023-05-02T07:19:11.631Z,48.01
2023-05-02T07:20:11.696Z,43.72
2023-05-02T07:21:11.772Z,45.93
2023-05-02T07:22:11.806Z,46.18
2023-05-02T07:23:11.867Z,49.45
2023-05-02T07:24:11.941Z,49.26
2023-05-02T07:25:12.022Z,44.41
2023-05-02T07:26:12.061Z,48.71
2023-05-02T07:27:12.103Z,50.03
2023-05-02T07:28:12.152Z,52.18
2023-05-02T07:29:12.217Z,45.73
2023-05-02T07:30:12.295Z,50.24
2023-05-02T07:31:12.342Z,50.47
2023-05-02T07:32:12.500Z,53.78
2023-05-02T07:33:12.525Z,52.34
2023-05-02T07:34:12.546Z,49.58
2023-05-02T07:35:12.598Z,51.51
2023-05-02T07:36:12.628Z,50.73
2023-05-02T07:37:12.665Z,51.65
2023-05-02T07:38:12.759Z,52.49
2023-05-02T07:39:12.809Z,52.70
2023-05-02T07:40:13.365Z,51.23
2023-05-02T07:41:12.953Z,50.56
2023-05-02T07:42:13.009Z,52.25
2023-05-02T07:43:13.090Z,53.39
2023-05-02T07:44:13.167Z,50.06
2023-05-02T07:45:13.333Z,50.53
2023-05-02T07:46:13.363Z,53.00
2023-05-02T07:47:13.309Z,50.80
2023-05-02T07:48:13.446Z,53.21
2023-05-02T07:49:13.469Z,53.28
2023-05-02T07:50:13.561Z,53.06
2023-05-02T07:51:13.604Z,51.86
2023-05-02T07:52:13.660Z,55.40
2023-05-02T07:53:13.690Z,56.04
2023-05-02T07:54:13.782Z,55.99
2023-05-02T07:55:13.824Z,58.37
2023-05-02T07:56:13.912Z,58.05
2023-05-02T07:57:13.961Z,58.87
2023-05-02T07:58:14.020Z,55.90
2023-05-02T07:59:14.059Z,57.10
2023-05-02T08:00:14.120Z,57.63
2023-05-02T08:01:14.212Z,57.55
2023-05-02T08:02:14.420Z,59.15
2023-05-02T08:03:14.425Z,59.31
2023-05-02T08:04:14.573Z,58.84
2023-05-02T08:05:14.503Z,56.52
2023-05-02T08:06:14.596Z,61.31
2023-05-02T08:07:14.561Z,60.35
2023-05-02T08:08:14.661Z,60.32
2023-05-02T08:09:14.711Z,60.05
2023-05-02T08:10:14.865Z,60.95
2023-05-02T08:11:14.832Z,58.36
2023-05-02T08:12:14.905Z,60.10
2023-05-02T08:13:14.961Z,62.46
2023-05-02T08:14:15.158Z,64.45
2023-05-02T08:15:15.120Z,64.19
2023-05-02T08:16:15.155Z,61.58
2023-05-02T08:17:15.175Z,65.76
2023-05-02T08:18:15.305Z,65.46
2023-05-02T08:19:15.317Z,63.66
2023-05-02T08:20:15.384Z,66.54
2023-05-02T08:21:15.420Z,64.90
2023-05-02T08:22:15.490Z,64.33
2023-05-02T08:23:15.570Z,64.29
2023-05-02T08:24:15.634Z,67.17
2023-05-02T08:25:15.698Z,66.43
2023-05-02T08:26:15.722Z,69.18
2023-05-02T08:27:15.800Z,66.39
2023-05-02T08:28:15.885Z,65.90
2023-05-02T08:29:15.950Z,67.14
2023-05-02T08:30:15.975Z,71.37
2023-05-02T08:31:16.087Z,67.03
2023-05-02T08:32:16.248Z,68.14
2023-05-02T08:33:16.317Z,67.70
2023-05-02T08:34:16.230Z,67.70
2023-05-02T08:35:16.262Z,70.38
2023-05-02T08:36:16.329Z,66.70
2023-05-02T08:37:16.371Z,68.59
2023-05-02T08:38:16.444Z,70.47
2023-05-02T08:39:16.500Z,67.30
2023-05-02T08:40:21.946Z,71.23
2023-05-02T08:41:17.547Z,71.48
2023-05-02T08:42:16.522Z,72.37
2023-05-02T08:43:16.586Z,73.64
2023-05-02T08:44:16.507Z,75.64
2023-05-02T08:45:16.978Z,76.46
2023-05-02T08:46:16.643Z,76.83
2023-05-02T08:47:16.539Z,77.74
2023-05-02T08:48:16.576Z,78.26
2023-05-02T08:49:16.474Z,76.77
2023-05-02T08:50:16.890Z,75.85
2023-05-02T08:51:16.585Z,77.43
2023-05-02T08:52:16.620Z,75.38
2023-05-02T08:53:16.642Z,78.23
2023-05-02T08:54:16.711Z,78.51
2023-05-02T08:55:16.753Z,79.58
2023-05-02T08:56:16.803Z,78.74
2023-05-02T08:57:16.849Z,76.17
2023-05-02T08:58:17.822Z,78.17
2023-05-02T08:59:16.974Z,73.74
2023-05-02T09:00:17.384Z,79.10
2023-05-02T09:01:17.020Z,81.07
2023-05-02T09:02:17.077Z,78.72
2023-05-02T09:03:17.147Z,81.86
2023-05-02T09:04:17.191Z,80.39
2023-05-02T09:05:17.215Z,75.18
2023-05-02T09:06:17.286Z,78.51
2023-05-02T09:07:17.259Z,80.42
2023-05-02T09:08:17.332Z,78.31
2023-05-02T09:09:19.121Z,80.51
2023-05-02T09:10:17.893Z,82.43
2023-05-02T09:11:17.434Z,82.11
2023-05-02T09:12:17.457Z,82.94
2023-05-02T09:13:17.533Z,80.46
2023-05-02T09:14:17.643Z,83.53
2023-05-02T09:15:20.972Z,83.06
2023-05-02T09:16:17.619Z,86.15
2023-05-02T09:17:17.582Z,83.89
2023-05-02T09:18:17.610Z,81.88
2023-05-02T09:19:17.583Z,82.80
2023-05-02T09:20:17.602Z,83.14
2023-05-02T09:21:20.677Z,79.71
2023-05-02T09:22:17.581Z,80.04
2023-05-02T09:23:17.548Z,80.91
2023-05-02T09:24:17.531Z,82.07
2023-05-02T09:25:17.546Z,84.10
2023-05-02T09:26:17.553Z,84.82
2023-05-02T09:27:17.541Z,84.00
2023-05-02T09:28:17.492Z,83.42
2023-05-02T09:29:17.499Z,82.56
2023-05-02T09:30:17.890Z,84.06
2023-05-02T09:31:26.940Z,86.21
2023-05-02T09:32:18.535Z,86.59
2023-05-02T09:33:18.198Z,86.81
2023-05-02T09:34:17.472Z,86.57
2023-05-02T09:35:17.496Z,85.26
2023-05-02T09:36:17.443Z,82.02
2023-05-02T09:37:17.462Z,83.01
2023-05-02T09:38:17.488Z,85.79
2023-05-02T09:39:17.497Z,85.13
2023-05-02T09:40:17.428Z,84.45
2023-05-02T09:41:18.027Z,84.81
2023-05-02T09:42:17.449Z,82.96
2023-05-02T09:43:17.426Z,79.56
2023-05-02T09:44:17.411Z,81.19
2023-05-02T09:45:17.476Z,83.00
2023-05-02T09:46:17.942Z,81.45
2023-05-02T09:47:17.509Z,83.97
2023-05-02T09:48:17.569Z,83.18
2023-05-02T09:49:17.613Z,77.45
2023-05-02T09:50:17.657Z,81.53
2023-05-02T09:51:17.693Z,80.22
2023-05-02T09:52:17.768Z,85.88
2023-05-02T09:53:17.736Z,88.33
2023-05-02T09:54:17.781Z,90.32
2023-05-02T09:55:17.826Z,93.39
2023-05-02T09:56:17.869Z,96.61
2023-05-02T09:57:17.911Z,92.85
2023-05-02T09:58:17.963Z,92.63
2023-05-02T09:59:17.967Z,93.01
2023-05-02T10:00:18.055Z,91.30
2023-05-02T10:01:18.082Z,93.64
2023-05-02T10:02:18.060Z,91.76
2023-05-02T10:03:18.196Z,89.71
2023-05-02T10:04:18.179Z,94.06
2023-05-02T10:05:18.211Z,94.21
2023-05-02T10:06:18.276Z,91.77
2023-05-02T10:07:18.292Z,94.98
2023-05-02T10:08:18.332Z,96.10
2023-05-02T10:09:21.440Z,93.18
2023-05-02T10:10:18.578Z,97.97
2023-05-02T10:11:18.337Z,97.10
2023-05-02T10:12:18.340Z,98.83
2023-05-02T10:13:18.349Z,97.09
2023-05-02T10:14:18.324Z,99.62
2023-05-02T10:15:18.308Z,95.33
2023-05-02T10:16:18.391Z,98.34
2023-05-02T10:17:18.305Z,100.32
2023-05-02T10:18:18.343Z,94.62
2023-05-02T10:19:18.307Z,95.17
2023-05-02T10:20:18.288Z,94.40
2023-05-02T10:21:18.311Z,95.81
2023-05-02T10:22:18.257Z,94.00
2023-05-02T10:23:18.257Z,94.51
2023-05-02T10:24:18.286Z,96.10
2023-05-02T10:25:18.251Z,93.81
2023-05-02T10:26:18.246Z,96.40
2023-05-02T10:27:18.247Z,94.67
2023-05-02T10:28:18.220Z,97.66
2023-05-02T10:29:18.235Z,93.44
2023-05-02T10:30:18.222Z,94.02
2023-05-02T10:31:18.272Z,96.20
2023-05-02T10:32:18.220Z,99.42
2023-05-02T10:33:18.192Z,97.90
2023-05-02T10:34:18.224Z,94.05
2023-05-02T10:35:18.277Z,98.09
2023-05-02T10:36:18.437Z,94.10
2023-05-02T10:37:18.160Z,99.70
2023-05-02T10:38:18.183Z,93.42
2023-05-02T10:39:18.180Z,96.95
2023-05-02T10:40:18.171Z,95.91
2023-05-02T10:41:18.443Z,97.07
2023-05-02T10:42:18.145Z,97.00
2023-05-02T10:43:18.132Z,97.90
2023-05-02T10:44:18.126Z,97.04
2023-05-02T10:45:18.118Z,94.91
2023-05-02T10:46:18.113Z,95.05
2023-05-02T10:47:18.131Z,92.00
2023-05-02T10:48:18.105Z,99.09
2023-05-02T10:49:18.133Z,94.86
2023-05-02T10:50:18.089Z,95.28
2023-05-02T10:51:18.186Z,93.89
2023-05-02T10:52:18.067Z,98.68
2023-05-02T10:53:18.158Z,93.89
2023-05-02T10:54:18.105Z,94.22
2023-05-02T10:55:18.110Z,97.46
2023-05-02T10:56:18.068Z,97.07
2023-05-02T10:57:18.071Z,96.90
2023-05-02T10:58:18.051Z,95.79
2023-05-02T10:59:18.032Z,97.06
2023-05-02T11:00:18.042Z,101.62
2023-05-02T11:01:18.099Z,100.02
2023-05-02T11:02:18.112Z,99.79
2023-05-02T11:03:18.150Z,100.58
2023-05-02T11:04:18.103Z,96.79
2023-05-02T11:05:18.166Z,97.22
2023-05-02T11:06:18.301Z,96.05
2023-05-02T11:07:18.192Z,96.40
2023-05-02T11:08:20.129Z,103.30
2023-05-02T11:09:18.194Z,102.09
2023-05-02T11:10:18.246Z,103.57
2023-05-02T11:11:18.204Z,100.30
2023-05-02T11:12:18.198Z,101.88
2023-05-02T11:13:18.187Z,96.39
2023-05-02T11:14:18.572Z,103.83
2023-05-02T11:15:18.173Z,102.71
2023-05-02T11:16:18.192Z,102.40
2023-05-02T11:17:18.180Z,101.68
2023-05-02T11:18:18.188Z,104.97
2023-05-02T11:19:18.140Z,103.96
2023-05-02T11:20:18.119Z,104.48
2023-05-02T11:21:18.148Z,104.42
2023-05-02T11:22:18.160Z,102.73
2023-05-02T11:23:18.108Z,108.59
2023-05-02T11:24:18.101Z,106.12
2023-05-02T11:25:18.110Z,106.48
2023-05-02T11:26:18.129Z,107.20
2023-05-02T11:27:18.127Z,106.34
2023-05-02T11:28:18.109Z,97.90
2023-05-02T11:29:18.079Z,102.38
2023-05-02T11:30:18.089Z,98.73
2023-05-02T11:31:18.438Z,86.31
2023-05-02T11:32:18.110Z,86.33
2023-05-02T11:33:18.141Z,93.96
2023-05-02T11:34:18.062Z,97.26
2023-05-02T11:35:18.108Z,101.23
2023-05-02T11:36:19.356Z,102.99
2023-05-02T11:37:18.021Z,107.21
2023-05-02T11:38:18.058Z,112.10
2023-05-02T11:39:18.005Z,107.83
2023-05-02T11:40:17.991Z,113.54
2023-05-02T11:41:18.019Z,112.10
2023-05-02T11:42:17.973Z,115.55
2023-05-02T11:43:17.998Z,111.81
2023-05-02T11:44:18.012Z,116.09
2023-05-02T11:45:17.962Z,111.75
2023-05-02T11:46:17.998Z,111.70
2023-05-02T11:47:17.953Z,112.79
2023-05-02T11:48:18.012Z,114.77
2023-05-02T11:49:17.988Z,113.95
2023-05-02T11:50:17.968Z,111.74
2023-05-02T11:51:17.951Z,114.27
2023-05-02T11:52:17.960Z,115.04
2023-05-02T11:53:17.974Z,114.89
2023-05-02T11:54:17.912Z,116.77
2023-05-02T11:55:17.952Z,115.22
2023-05-02T11:56:17.947Z,115.63
2023-05-02T11:57:17.935Z,113.45
2023-05-02T11:58:17.921Z,116.33
2023-05-02T11:59:17.909Z,113.45
2023-05-02T12:00:17.930Z,112.63
2023-05-02T12:01:17.901Z,116.61
2023-05-02T12:02:17.921Z,112.45
2023-05-02T12:03:17.910Z,113.66
2023-05-02T12:04:17.876Z,113.41
2023-05-02T12:05:17.909Z,114.53
2023-05-02T12:06:17.893Z,113.95
2023-05-02T12:07:17.903Z,112.33
2023-05-02T12:08:17.845Z,114.45
2023-05-02T12:09:17.879Z,115.51
2023-05-02T12:10:17.859Z,114.85
2023-05-02T12:11:17.838Z,115.73
2023-05-02T12:12:17.823Z,114.66
2023-05-02T12:13:17.846Z,116.27
2023-05-02T12:14:17.795Z,110.59
2023-05-02T12:15:17.829Z,112.28
2023-05-02T12:16:17.980Z,115.72
2023-05-02T12:17:17.797Z,112.73
2023-05-02T12:18:18.078Z,113.41
2023-05-02T12:19:17.821Z,112.65
2023-05-02T12:20:17.798Z,112.53
2023-05-02T12:21:17.804Z,114.27
2023-05-02T12:22:17.778Z,115.66
2023-05-02T12:23:17.759Z,112.60
2023-05-02T12:24:17.763Z,121.70
2023-05-02T12:25:17.769Z,129.87
2023-05-02T12:26:17.786Z,125.40
2023-05-02T12:27:17.786Z,127.68
2023-05-02T12:28:17.798Z,130.52
2023-05-02T12:29:17.816Z,142.88
2023-05-02T12:30:17.869Z,146.99
2023-05-02T12:31:17.922Z,141.28
2023-05-02T12:32:17.926Z,145.91
2023-05-02T12:33:17.956Z,144.60
2023-05-02T12:34:17.932Z,144.64
2023-05-02T12:35:17.953Z,144.76
2023-05-02T12:36:17.977Z,149.79
2023-05-02T12:37:17.977Z,149.16
2023-05-02T12:38:18.013Z,149.63
2023-05-02T12:39:18.028Z,148.56
2023-05-02T12:40:18.053Z,154.01
2023-05-02T12:41:18.045Z,152.92
2023-05-02T12:42:18.067Z,151.16
2023-05-02T12:43:18.053Z,153.59
2023-05-02T12:44:18.099Z,156.10
2023-05-02T12:45:18.167Z,154.46
2023-05-02T12:46:18.183Z,152.56
2023-05-02T12:47:18.232Z,154.34
2023-05-02T12:48:18.097Z,156.60
2023-05-02T12:49:18.148Z,151.26
2023-05-02T12:50:18.127Z,148.40